createdAt,value
2023-03-29T00:02:07.965Z,98996.28
2023-03-29T00:04:41.682Z,98978.12
2023-03-29T00:07:15.516Z,98992.93
2023-03-29T00:09:48.513Z,98989.96
2023-03-29T00:12:21.129Z,98990.61
2023-03-29T00:14:53.769Z,98976.48
2023-03-29T00:17:26.825Z,98973.71
2023-03-29T00:19:59.457Z,98962.91
2023-03-29T00:22:32.527Z,98973.71
2023-03-29T00:25:07.338Z,98974.94
2023-03-29T00:27:39.332Z,98972.91
2023-03-29T00:30:15.202Z,98984.44
2023-03-29T00:32:48.216Z,98983.60
2023-03-29T00:35:21.252Z,98983.97
2023-03-29T00:37:53.729Z,98978.77
2023-03-29T00:40:26.177Z,98977.86
2023-03-29T00:43:00.628Z,98973.92
2023-03-29T00:45:35.544Z,98975.88
2023-03-29T00:48:12.363Z,98968.28
2023-03-29T00:51:01.767Z,98984.42
2023-03-29T00:53:38.020Z,98990.84
2023-03-29T00:56:16.919Z,98982.44
2023-03-29T00:59:17.896Z,98984.46
2023-03-29T01:01:55.367Z,98987.83
2023-03-29T01:04:52.961Z,98986.70
2023-03-29T01:07:55.713Z,99006.48
2023-03-29T01:10:41.504Z,99010.06
2023-03-29T01:13:18.091Z,99026.30
2023-03-29T01:15:51.374Z,99031.13
2023-03-29T01:18:24.172Z,99048.30
2023-03-29T01:21:24.768Z,99052.50
2023-03-29T01:24:33.424Z,99054.61
2023-03-29T01:27:52.199Z,99068.63
2023-03-29T01:30:41.836Z,99072.27
2023-03-29T01:33:25.940Z,99075.31
2023-03-29T01:36:05.825Z,99062.10
2023-03-29T01:38:49.006Z,99076.22
2023-03-29T01:41:32.447Z,99073.19
2023-03-29T01:44:11.526Z,99080.08
2023-03-29T01:46:53.723Z,99075.56
2023-03-29T01:49:52.175Z,99096.31
2023-03-29T01:52:48.241Z,99087.80
2023-03-29T01:55:26.433Z,99092.36
2023-03-29T01:58:00.780Z,99095.66
2023-03-29T02:00:34.363Z,99104.44
2023-03-29T02:03:10.300Z,99113.11
2023-03-29T02:05:42.999Z,99105.83
2023-03-29T02:08:17.805Z,99109.07
2023-03-29T02:10:51.888Z,99116.14
2023-03-29T02:13:25.162Z,99116.14
2023-03-29T02:15:59.619Z,99132.91
2023-03-29T02:18:32.520Z,99126.89
2023-03-29T02:21:05.081Z,99148.06
2023-03-29T02:23:45.584Z,99152.59
2023-03-29T02:26:19.166Z,99152.91
2023-03-29T02:28:52.950Z,99152.38
2023-03-29T02:31:52.690Z,99162.30
2023-03-29T02:34:37.749Z,99164.04
2023-03-29T02:37:13.509Z,99172.31
2023-03-29T02:39:47.808Z,99179.97
2023-03-29T02:42:20.634Z,99182.70
2023-03-29T02:44:57.126Z,99186.15
2023-03-29T02:47:48.791Z,99186.86
2023-03-29T02:50:22.303Z,99183.31
2023-03-29T02:53:00.864Z,99184.86
2023-03-29T02:55:36.063Z,99190.20
2023-03-29T02:58:12.870Z,99191.73
2023-03-29T03:00:48.837Z,99188.86
2023-03-29T03:03:22.649Z,99184.34
2023-03-29T03:05:56.169Z,99180.23
2023-03-29T03:08:30.127Z,99190.11
2023-03-29T03:11:03.978Z,99192.31
2023-03-29T03:13:38.327Z,99189.91
2023-03-29T03:16:12.120Z,99191.03
2023-03-29T03:18:46.178Z,99188.00
2023-03-29T03:21:21.033Z,99191.54
2023-03-29T03:23:54.446Z,99192.93
2023-03-29T03:26:29.543Z,99189.75
2023-03-29T03:29:02.075Z,99186.72
2023-03-29T03:31:54.451Z,99204.40
2023-03-29T03:34:31.529Z,99205.58
2023-03-29T03:37:05.968Z,99203.88
2023-03-29T03:39:39.526Z,99215.14
2023-03-29T03:42:13.627Z,99213.94
2023-03-29T03:44:48.026Z,99216.35
2023-03-29T03:47:25.694Z,99209.88
2023-03-29T03:49:59.937Z,99212.34
2023-03-29T03:52:33.118Z,99215.28
2023-03-29T03:55:08.479Z,99212.55
2023-03-29T03:57:54.971Z,99214.81
2023-03-29T04:00:27.948Z,99234.89
2023-03-29T04:03:04.937Z,99243.11
2023-03-29T04:05:43.567Z,99235.76
2023-03-29T04:08:17.051Z,99236.53
2023-03-29T04:11:07.781Z,99245.58
2023-03-29T04:13:42.408Z,99235.86
2023-03-29T04:16:20.098Z,99242.73
2023-03-29T04:18:52.753Z,99247.72
2023-03-29T04:21:27.482Z,99253.05
2023-03-29T04:26:33.322Z,99250.88
2023-03-29T04:29:11.166Z,99272.38
2023-03-29T04:34:39.364Z,99265.87
2023-03-29T04:37:12.603Z,99266.54
2023-03-29T04:39:45.697Z,99278.63
2023-03-29T04:42:19.238Z,99274.59
2023-03-29T04:44:53.383Z,99280.11
2023-03-29T04:47:31.779Z,99283.95
2023-03-29T04:50:10.830Z,99284.05
2023-03-29T04:52:45.775Z,99288.95
2023-03-29T04:55:18.816Z,99283.70
2023-03-29T04:57:59.227Z,99294.09
2023-03-29T05:00:36.981Z,99290.58
2023-03-29T05:03:28.092Z,99283.20
2023-03-29T05:06:07.303Z,99301.34
2023-03-29T05:08:41.854Z,99292.16
2023-03-29T05:11:20.211Z,99300.00
2023-03-29T05:13:53.207Z,99296.73
2023-03-29T05:16:26.727Z,99297.14
2023-03-29T05:19:01.140Z,99301.48
2023-03-29T05:21:35.466Z,99293.56
2023-03-29T05:24:11.110Z,99307.13
2023-03-29T05:26:46.866Z,99313.34
2023-03-29T05:29:20.879Z,99302.35
2023-03-29T05:31:56.463Z,99304.35
2023-03-29T05:34:30.147Z,99308.48
2023-03-29T05:37:04.092Z,99305.91
2023-03-29T05:39:38.389Z,99314.70
2023-03-29T05:42:13.741Z,99323.16
2023-03-29T05:44:58.676Z,99323.83
2023-03-29T05:47:31.972Z,99324.09
2023-03-29T05:50:05.350Z,99317.13
2023-03-29T05:52:38.953Z,99317.89
2023-03-29T05:55:12.520Z,99318.53
2023-03-29T05:57:45.943Z,99317.79
2023-03-29T06:00:22.034Z,99340.49
2023-03-29T06:03:03.765Z,99343.11
2023-03-29T06:05:32.402Z,99341.60
2023-03-29T06:08:05.888Z,99344.64
2023-03-29T06:10:42.568Z,99351.90
2023-03-29T06:13:20.596Z,99346.91
2023-03-29T06:15:55.050Z,99354.26
2023-03-29T06:18:30.322Z,99359.20
2023-03-29T06:21:04.447Z,99354.53
2023-03-29T06:23:38.135Z,99360.84
2023-03-29T06:26:11.202Z,99362.73
2023-03-29T06:28:44.346Z,99362.84
2023-03-29T06:31:17.683Z,99375.13
2023-03-29T06:33:51.072Z,99367.33
2023-03-29T06:36:37.918Z,99390.11
2023-03-29T06:39:12.220Z,99381.03
2023-03-29T06:41:46.587Z,99382.09
2023-03-29T06:44:25.715Z,99398.23
2023-03-29T06:47:02.692Z,99388.11
2023-03-29T06:49:35.713Z,99395.95
2023-03-29T06:52:11.252Z,99408.74
2023-03-29T06:54:44.318Z,99402.05
2023-03-29T06:57:18.921Z,99414.81
2023-03-29T06:59:53.267Z,99411.00
2023-03-29T07:02:29.215Z,99414.73
2023-03-29T07:05:14.699Z,99416.94
2023-03-29T07:08:00.014Z,99427.91
2023-03-29T07:10:53.499Z,99435.05
2023-03-29T07:13:44.613Z,99431.45
2023-03-29T07:16:19.560Z,99445.95
2023-03-29T07:19:11.400Z,99452.89
2023-03-29T07:22:02.339Z,99447.45
2023-03-29T07:24:42.737Z,99465.20
2023-03-29T07:27:16.609Z,99460.27
2023-03-29T07:29:51.575Z,99467.40
2023-03-29T07:32:24.349Z,99465.49
2023-03-29T07:35:04.943Z,99468.47
2023-03-29T07:37:39.570Z,99485.64
2023-03-29T07:40:16.361Z,99489.55
2023-03-29T07:43:06.206Z,99481.84
2023-03-29T07:45:40.529Z,99495.48
2023-03-29T07:48:19.650Z,99503.22
2023-03-29T07:50:59.883Z,99507.80
2023-03-29T07:53:37.206Z,99508.56
2023-03-29T07:56:12.090Z,99499.77
2023-03-29T07:58:46.961Z,99510.00
2023-03-29T08:01:20.645Z,99514.39
2023-03-29T08:04:07.419Z,99519.23
2023-03-29T08:06:44.234Z,99517.92
2023-03-29T08:09:17.681Z,99509.98
2023-03-29T08:11:51.108Z,99529.06
2023-03-29T08:14:26.146Z,99532.42
2023-03-29T08:17:03.916Z,99529.94
2023-03-29T08:19:37.297Z,99530.13
2023-03-29T08:22:12.592Z,99541.41
2023-03-29T08:25:04.472Z,99538.92
2023-03-29T08:27:39.056Z,99533.17
2023-03-29T08:30:14.693Z,99549.80
2023-03-29T08:32:50.928Z,99544.83
2023-03-29T08:35:21.567Z,99554.09
2023-03-29T08:37:58.546Z,99558.19
2023-03-29T08:40:32.235Z,99565.83
2023-03-29T08:43:55.820Z,99551.98
2023-03-29T08:47:03.088Z,99560.57
2023-03-29T08:49:44.760Z,99551.30
2023-03-29T08:52:26.494Z,99558.07
2023-03-29T08:54:59.932Z,99560.06
2023-03-29T08:57:36.245Z,99569.64
2023-03-29T09:00:14.990Z,99570.30
2023-03-29T09:03:00.291Z,99577.58
2023-03-29T09:05:36.458Z,99581.87
2023-03-29T09:08:18.408Z,99587.03
2023-03-29T09:11:12.774Z,99580.72
2023-03-29T09:14:24.508Z,99579.37
2023-03-29T09:17:26.562Z,99584.72
2023-03-29T09:20:10.603Z,99580.33
2023-03-29T09:22:54.666Z,99599.82
2023-03-29T09:26:16.506Z,99592.56
2023-03-29T09:29:17.854Z,99593.67
2023-03-29T09:31:50.411Z,99585.85
2023-03-29T09:34:34.885Z,99601.91
2023-03-29T09:37:16.813Z,99604.50
2023-03-29T09:39:49.767Z,99612.20
2023-03-29T09:42:23.337Z,99604.39
2023-03-29T09:45:08.061Z,99619.59
2023-03-29T09:47:53.766Z,99614.24
2023-03-29T09:50:41.384Z,99631.13
2023-03-29T09:53:19.898Z,99622.73
2023-03-29T09:55:55.633Z,99629.52
2023-03-29T09:58:43.306Z,99640.32
2023-03-29T10:01:18.762Z,99641.09
2023-03-29T10:03:54.035Z,99640.59
2023-03-29T10:06:27.171Z,99647.19
2023-03-29T10:09:04.870Z,99654.84
2023-03-29T10:11:39.777Z,99652.34
2023-03-29T10:14:22.507Z,99656.95
2023-03-29T10:16:59.475Z,99655.59
2023-03-29T10:19:36.839Z,99677.08
2023-03-29T10:22:29.203Z,99671.95
2023-03-29T10:25:02.380Z,99666.78
2023-03-29T10:27:35.451Z,99664.29
2023-03-29T10:30:16.469Z,99672.50
2023-03-29T10:32:58.246Z,99679.10
2023-03-29T10:35:43.440Z,99681.59
2023-03-29T10:38:19.263Z,99702.21
2023-03-29T10:40:55.229Z,99694.28
2023-03-29T10:43:32.036Z,99691.54
2023-03-29T10:46:23.740Z,99702.98
2023-03-29T10:49:09.005Z,99691.16
2023-03-29T10:51:45.791Z,99697.94
2023-03-29T10:54:22.019Z,99708.33
2023-03-29T10:56:59.465Z,99701.73
2023-03-29T10:59:36.261Z,99708.15
2023-03-29T11:02:32.292Z,99711.32
2023-03-29T11:05:10.739Z,99715.80
2023-03-29T11:08:15.446Z,99712.37
2023-03-29T11:11:12.789Z,99711.87
2023-03-29T11:14:02.743Z,99707.57
2023-03-29T11:16:42.249Z,99715.33
2023-03-29T11:19:43.607Z,99717.13
2023-03-29T11:22:29.167Z,99711.31
2023-03-29T11:25:22.378Z,99725.84
2023-03-29T11:28:07.887Z,99711.89
2023-03-29T11:31:12.501Z,99711.18
2023-03-29T11:34:15.966Z,99718.19
2023-03-29T11:37:08.870Z,99720.74
2023-03-29T11:39:49.640Z,99717.59
2023-03-29T11:42:29.942Z,99723.23
2023-03-29T11:45:05.169Z,99715.70
2023-03-29T11:47:39.277Z,99720.45
2023-03-29T11:50:28.843Z,99730.78
2023-03-29T11:53:09.414Z,99726.66
2023-03-29T11:55:42.148Z,99721.12
2023-03-29T11:58:22.960Z,99726.36
2023-03-29T12:01:00.814Z,99734.28
2023-03-29T12:04:00.586Z,99731.88
2023-03-29T12:06:56.675Z,99737.52
2023-03-29T12:09:42.640Z,99743.94
2023-03-29T12:12:25.375Z,99745.57
2023-03-29T12:15:25.096Z,99749.30
2023-03-29T12:18:27.171Z,99750.52
2023-03-29T12:21:03.418Z,99739.95
2023-03-29T12:23:44.194Z,99757.94
2023-03-29T12:26:38.082Z,99759.45
2023-03-29T12:29:42.254Z,99768.83
2023-03-29T12:32:39.073Z,99759.72
2023-03-29T12:35:52.922Z,99758.25
2023-03-29T12:38:42.578Z,99759.56
2023-03-29T12:41:37.215Z,99759.86
2023-03-29T12:44:27.463Z,99770.91
2023-03-29T12:47:04.286Z,99760.62
2023-03-29T12:49:39.299Z,99774.94
2023-03-29T12:52:36.831Z,99768.63
2023-03-29T12:55:54.391Z,99770.91
2023-03-29T12:58:58.600Z,99767.09
2023-03-29T13:01:37.876Z,99773.16
2023-03-29T13:04:21.426Z,99780.50
2023-03-29T13:07:04.793Z,99782.33
2023-03-29T13:09:58.727Z,99779.77
2023-03-29T13:12:43.368Z,99789.70
2023-03-29T13:15:37.781Z,99791.62
2023-03-29T13:18:34.277Z,99792.35
2023-03-29T13:21:15.271Z,99794.49
2023-03-29T13:24:18.947Z,99793.00
2023-03-29T13:27:18.732Z,99785.52
2023-03-29T13:30:09.347Z,99798.36
2023-03-29T13:33:27.817Z,99800.59
2023-03-29T13:36:11.258Z,99805.19
2023-03-29T13:38:48.962Z,99807.87
2023-03-29T13:41:44.643Z,99816.45
2023-03-29T13:44:33.228Z,99826.52
2023-03-29T13:47:27.725Z,99824.98
2023-03-29T13:50:06.271Z,99834.94
2023-03-29T13:52:42.756Z,99848.01
2023-03-29T13:55:30.954Z,99854.43
2023-03-29T13:58:07.639Z,99857.90
2023-03-29T14:00:59.835Z,99857.50
2023-03-29T14:03:38.490Z,99870.70
2023-03-29T14:06:11.612Z,99877.02
2023-03-29T14:08:45.455Z,99877.02
2023-03-29T14:11:31.051Z,99885.83
2023-03-29T14:14:06.729Z,99885.45
2023-03-29T14:16:42.785Z,99890.81
2023-03-29T14:19:34.233Z,99900.57
2023-03-29T14:22:13.794Z,99897.11
2023-03-29T14:24:56.986Z,99905.62
2023-03-29T14:27:32.366Z,99912.04
2023-03-29T14:30:25.117Z,99905.71
2023-03-29T14:32:58.830Z,99908.02
2023-03-29T14:35:33.499Z,99909.55
2023-03-29T14:38:06.456Z,99910.52
2023-03-29T14:40:39.012Z,99919.11
2023-03-29T14:43:13.380Z,99920.45
2023-03-29T14:45:46.620Z,99930.02
2023-03-29T14:48:21.023Z,99928.11
2023-03-29T14:50:53.816Z,99936.44
2023-03-29T14:53:29.042Z,99934.63
2023-03-29T14:56:02.389Z,99941.69
2023-03-29T14:58:36.574Z,99946.40
2023-03-29T15:01:21.735Z,99946.87
2023-03-29T15:04:09.176Z,99939.11
2023-03-29T15:06:44.410Z,99961.00
2023-03-29T15:09:26.383Z,99952.59
2023-03-29T15:12:00.660Z,99953.66
2023-03-29T15:14:35.168Z,99967.93
2023-03-29T15:17:39.089Z,99968.02
2023-03-29T15:20:11.669Z,99969.05
2023-03-29T15:23:06.940Z,99973.47
2023-03-29T15:25:52.441Z,99976.52
2023-03-29T15:28:34.034Z,99984.00
2023-03-29T15:31:45.541Z,99980.73
2023-03-29T15:34:28.828Z,99984.65
2023-03-29T15:37:02.672Z,99976.33
2023-03-29T15:39:39.011Z,99994.62
2023-03-29T15:42:11.775Z,99996.05
2023-03-29T15:44:44.679Z,100003.11
2023-03-29T15:47:17.543Z,100008.04
2023-03-29T15:49:51.842Z,100018.00
2023-03-29T15:52:25.609Z,100005.72
2023-03-29T15:54:59.208Z,100022.00
2023-03-29T15:57:31.793Z,100026.02
2023-03-29T16:00:08.222Z,100024.68
2023-03-29T16:02:43.370Z,100024.68
2023-03-29T16:05:17.498Z,100030.13
2023-03-29T16:07:52.130Z,100038.82
2023-03-29T16:10:24.890Z,100041.70
2023-03-29T16:12:58.059Z,100035.88
2023-03-29T16:15:31.218Z,100040.16
2023-03-29T16:18:04.010Z,100032.11
2023-03-29T16:20:38.416Z,100038.19
2023-03-29T16:23:11.774Z,100046.80
2023-03-29T16:25:44.853Z,100051.55
2023-03-29T16:28:18.761Z,100045.99
2023-03-29T16:30:51.933Z,100048.58
2023-03-29T16:33:25.131Z,100045.35
2023-03-29T16:35:58.948Z,100049.28
2023-03-29T16:38:34.207Z,100050.53
2023-03-29T16:41:28.421Z,100050.21
2023-03-29T16:44:02.080Z,100053.38
2023-03-29T16:46:34.965Z,100043.11
2023-03-29T16:49:08.723Z,100052.30
2023-03-29T16:51:42.319Z,100055.36
2023-03-29T16:54:15.722Z,100058.04
2023-03-29T16:56:48.989Z,100054.57
2023-03-29T16:59:22.496Z,100069.44
2023-03-29T17:01:55.079Z,100069.44
2023-03-29T17:04:27.860Z,100066.03
2023-03-29T17:07:01.419Z,100076.95
2023-03-29T17:09:35.603Z,100095.59
2023-03-29T17:12:08.222Z,100087.66
2023-03-29T17:14:42.168Z,100092.63
2023-03-29T17:17:15.780Z,100095.52
2023-03-29T17:19:48.517Z,100097.64
2023-03-29T17:22:21.104Z,100108.93
2023-03-29T17:24:54.697Z,100105.88
2023-03-29T17:27:28.128Z,100109.69
2023-03-29T17:30:00.549Z,100107.81
2023-03-29T17:32:34.297Z,100110.12
2023-03-29T17:35:08.087Z,100115.84
2023-03-29T17:37:42.104Z,100108.69
2023-03-29T17:40:16.333Z,100121.33
2023-03-29T17:42:51.607Z,100118.02
2023-03-29T17:45:25.531Z,100120.05
2023-03-29T17:47:58.260Z,100126.83
2023-03-29T17:50:31.540Z,100126.25
2023-03-29T17:53:05.739Z,100133.81
2023-03-29T17:55:41.986Z,100133.44
2023-03-29T17:58:14.983Z,100130.44
2023-03-29T18:01:00.521Z,100137.39
2023-03-29T18:03:34.810Z,100139.02
2023-03-29T18:06:08.867Z,100143.58
2023-03-29T18:08:41.707Z,100148.47
2023-03-29T18:11:20.718Z,100150.35
2023-03-29T18:13:54.365Z,100159.34
2023-03-29T18:16:27.464Z,100164.86
2023-03-29T18:19:00.296Z,100182.09
2023-03-29T18:21:33.173Z,100177.28
2023-03-29T18:24:06.636Z,100180.92
2023-03-29T18:26:39.637Z,100182.80
2023-03-29T18:29:12.929Z,100180.38
2023-03-29T18:31:46.414Z,100186.90
2023-03-29T18:34:19.159Z,100189.11
2023-03-29T18:36:54.024Z,100181.47
2023-03-29T18:39:27.436Z,100178.41
2023-03-29T18:42:01.804Z,100186.82
2023-03-29T18:44:35.397Z,100193.51
2023-03-29T18:47:08.898Z,100188.16
2023-03-29T18:49:43.327Z,100189.95
2023-03-29T18:52:15.784Z,100199.66
2023-03-29T18:54:48.471Z,100191.12
2023-03-29T18:57:21.278Z,100195.06
2023-03-29T18:59:54.771Z,100194.89
2023-03-29T19:02:27.870Z,100200.83
2023-03-29T19:05:01.971Z,100195.22
2023-03-29T19:07:35.586Z,100195.77
2023-03-29T19:10:09.560Z,100198.45
2023-03-29T19:12:42.699Z,100202.46
2023-03-29T19:15:16.580Z,100198.70
2023-03-29T19:17:50.653Z,100198.31
2023-03-29T19:20:25.165Z,100191.22
2023-03-29T19:22:58.146Z,100200.58
2023-03-29T19:25:32.416Z,100201.92
2023-03-29T19:28:05.109Z,100210.52
2023-03-29T19:30:37.750Z,100198.65
2023-03-29T19:33:11.608Z,100202.58
2023-03-29T19:35:46.424Z,100197.85
2023-03-29T19:38:21.792Z,100200.86
2023-03-29T19:40:54.981Z,100207.72
2023-03-29T19:43:28.699Z,100204.70
2023-03-29T19:46:11.109Z,100210.30
2023-03-29T19:48:43.700Z,100206.63
2023-03-29T19:51:31.339Z,100209.16
2023-03-29T19:54:04.983Z,100215.36
2023-03-29T19:56:38.069Z,100212.30
2023-03-29T19:59:15.657Z,100209.25
2023-03-29T20:01:49.944Z,100214.34
2023-03-29T20:04:24.686Z,100214.50
2023-03-29T20:06:57.830Z,100220.05
2023-03-29T20:09:30.782Z,100219.41
2023-03-29T20:12:03.902Z,100219.72
2023-03-29T20:14:38.606Z,100207.76
2023-03-29T20:17:11.421Z,100213.98
2023-03-29T20:19:44.776Z,100215.02
2023-03-29T20:22:19.188Z,100217.70
2023-03-29T20:24:52.048Z,100218.45
2023-03-29T20:27:25.691Z,100219.25
2023-03-29T20:29:58.341Z,100219.80
2023-03-29T20:32:31.232Z,100226.41
2023-03-29T20:35:04.844Z,100224.14
2023-03-29T20:37:37.535Z,100231.45
2023-03-29T20:40:13.180Z,100233.33
2023-03-29T20:42:46.332Z,100237.50
2023-03-29T20:45:21.969Z,100237.28
2023-03-29T20:48:02.478Z,100234.22
2023-03-29T20:50:36.924Z,100231.32
2023-03-29T20:53:09.728Z,100236.75
2023-03-29T20:55:42.926Z,100239.34
2023-03-29T20:58:16.179Z,100233.74
2023-03-29T21:00:48.703Z,100235.65
2023-03-29T21:03:22.603Z,100238.94
2023-03-29T21:05:57.591Z,100238.25
2023-03-29T21:08:31.339Z,100239.83
2023-03-29T21:11:04.481Z,100246.12
2023-03-29T21:13:48.752Z,100241.85
2023-03-29T21:16:21.359Z,100241.70
2023-03-29T21:18:54.208Z,100247.77
2023-03-29T21:21:26.657Z,100243.98
2023-03-29T21:24:00.216Z,100248.30
2023-03-29T21:26:33.078Z,100250.02
2023-03-29T21:29:05.763Z,100246.02
2023-03-29T21:31:40.260Z,100253.87
2023-03-29T21:34:12.828Z,100251.89
2023-03-29T21:36:47.056Z,100257.00
2023-03-29T21:39:19.417Z,100257.95
2023-03-29T21:41:51.895Z,100254.09
2023-03-29T21:44:26.418Z,100261.58
2023-03-29T21:46:59.071Z,100257.72
2023-03-29T21:49:32.426Z,100256.98
2023-03-29T21:52:05.260Z,100256.91
2023-03-29T21:54:39.549Z,100258.48
2023-03-29T21:57:12.370Z,100255.66
2023-03-29T21:59:44.835Z,100263.53
2023-03-29T22:02:17.925Z,100266.58
2023-03-29T22:04:50.296Z,100266.41
2023-03-29T22:07:25.635Z,100265.38
2023-03-29T22:09:58.922Z,100274.41
2023-03-29T22:12:34.778Z,100267.42
2023-03-29T22:15:10.886Z,100273.53
2023-03-29T22:17:43.652Z,100279.02
2023-03-29T22:20:18.566Z,100280.26
2023-03-29T22:22:52.421Z,100275.06
2023-03-29T22:25:25.176Z,100274.82
2023-03-29T22:27:58.336Z,100280.48
2023-03-29T22:30:31.225Z,100278.75
2023-03-29T22:33:04.093Z,100281.98
2023-03-29T22:35:38.201Z,100285.05
2023-03-29T22:38:10.951Z,100286.00
2023-03-29T22:40:43.960Z,100288.31
2023-03-29T22:43:16.549Z,100278.66
2023-03-29T22:45:50.105Z,100282.42
2023-03-29T22:48:23.355Z,100278.17
2023-03-29T22:50:55.748Z,100281.69
2023-03-29T22:53:28.946Z,100279.09
2023-03-29T22:56:01.508Z,100268.23
2023-03-29T22:58:34.129Z,100270.23
2023-03-29T23:01:08.486Z,100273.29
2023-03-29T23:03:41.945Z,100282.56
2023-03-29T23:06:14.693Z,100277.36
2023-03-29T23:08:47.813Z,100281.37
2023-03-29T23:11:21.679Z,100275.57
2023-03-29T23:13:55.336Z,100282.17
2023-03-29T23:16:27.988Z,100278.56
2023-03-29T23:19:01.499Z,100277.19
2023-03-29T23:21:35.792Z,100277.19
2023-03-29T23:24:09.687Z,100277.09
2023-03-29T23:26:44.107Z,100282.77
2023-03-29T23:29:16.752Z,100282.70
2023-03-29T23:31:50.290Z,100288.05
2023-03-29T23:34:23.280Z,100287.09
2023-03-29T23:36:57.169Z,100288.05
2023-03-29T23:39:29.914Z,100286.46
2023-03-29T23:42:03.630Z,100280.77
2023-03-29T23:44:37.944Z,100279.93
2023-03-29T23:47:11.477Z,100283.94
2023-03-29T23:49:45.708Z,100283.58
2023-03-29T23:52:18.493Z,100295.66
2023-03-29T23:54:52.278Z,100286.31
2023-03-29T23:57:27.924Z,100293.87
